LKKU  Kunovice Airport

Add Bookmark

Uherské Hradiště, Czech Republic

Status IATA
Operational UHE
Latitude Longitude
49° 1' 45" N 17° 26' 22" E
49.029400 17.439699
Local (DST + 2) UTC (GMT + 1)
Sep 2, 2014 06:15 Sep 2, 2014 04:15
Sunrise-Sunset Local UTC
Begin Civil Twilight 05:34 03:34
Sunrise 06:07 04:07
Sunset 07:32 17:32
End Civil Twilight 08:05 18:05

Current Weather

METAR Observed MVFR
LKKU 011400Z 01006KT 9000 -RA SCT025 OVC030 16/15 Q1012 Mon, Sep 1, 2014 @ 14:00 UTC
(14 Hours, 15 Minutes ago)
Marginal Visual Flight Rules
Wind Visibility Clouds Conditions
010° at 6 knots (11 kph) 9000 meters
  • Scattered at 2,500' AGL
  • Overcast at 3,000' AGL
  • Light Rain
Temperatures Readings Precipitation
Current Temp 16°C (61°F)
Dewpoint 15°C (59°F)
Humidity 94%
Altimeter 29.88"Hg
Sea Level Pressure 1012mb
Field Elevation 580.71'
None Recorded

Additional weather within a 92.6km radius of LKKU

Map ICAO Location
LZPP 53.2km S (148°)
LKTB 55.9km W (284°)
LZZI 88.3km E (075°)
LKMT 88.5km N (033°)

24 Hour Weather History

Loading
-

24 Hour Weather Graphs

Loading
-

CheckWX.com is intended as a tool to help pilots better visualize weather data. It is not intended as a substitute for an official weather briefing obtained from a Flight Service Station. CheckWX.com does not meet the FAA requirements for an official pre-flight weather briefing. Therefore, it's important that pilots still call and obtain an official FSS pre-flight weather briefing.